Time;durP1;ratioP1;P1;durP2;ratioP2;P2;SDS_P1;SDS_P2;PMS_P1;PMS_P2;Temp;Humidity;BMP_temperature;BMP_pressure;BME280_temperature;BME280_humidity;BME280_pressure;Samples;Min_cycle;Max_cycle;Signal;HPM_P1;HPM_P2
2022/06/16 00:02:02;;;;;;;6.32;3.00;;;;;;;19.06;69.26;96203.38;5001655;28;20038;-83
2022/06/16 00:04:28;;;;;;;5.75;3.13;;;;;;;18.97;70.47;96193.97;4993342;28;20084;-82
2022/06/16 00:06:56;;;;;;;8.20;3.00;;;;;;;18.97;70.18;96193.97;5008723;28;20026;-83
2022/06/16 00:09:23;;;;;;;5.72;3.00;;;;;;;18.81;70.88;96189.13;4998589;28;20667;-83
2022/06/16 00:11:51;;;;;;;6.80;3.15;;;;;;;18.78;70.94;96193.06;4999094;28;20030;-83
2022/06/16 00:14:18;;;;;;;12.45;3.70;;;;;;;18.72;71.93;96193.91;4998298;28;20129;-83
2022/06/16 00:16:45;;;;;;;5.65;2.67;;;;;;;18.57;73.76;96191.44;4998794;28;20488;-83
2022/06/16 00:19:11;;;;;;;7.25;3.22;;;;;;;18.47;74.15;96193.72;4998605;28;20034;-83
2022/06/16 00:21:37;;;;;;;6.07;2.90;;;;;;;18.51;74.46;96188.81;4998486;28;20032;-83
2022/06/16 00:24:03;;;;;;;4.43;2.60;;;;;;;18.47;74.55;96185.75;4998817;28;20041;-83
2022/06/16 00:26:29;;;;;;;8.13;3.30;;;;;;;18.40;73.65;96181.47;4997499;28;20249;-83
2022/06/16 00:28:55;;;;;;;5.97;2.85;;;;;;;18.37;73.60;96190.69;4998066;28;20022;-83
2022/06/16 00:31:23;;;;;;;5.72;3.22;;;;;;;18.34;74.19;96185.78;4998072;28;20049;-83
2022/06/16 00:33:50;;;;;;;5.22;2.85;;;;;;;18.26;74.36;96188.69;4998934;28;20072;-83
2022/06/16 00:36:17;;;;;;;5.40;3.05;;;;;;;18.21;74.69;96186.66;4982311;28;20026;-83
2022/06/16 00:38:43;;;;;;;7.85;3.17;;;;;;;18.11;75.96;96194.25;4998853;28;20197;-83
2022/06/16 00:41:10;;;;;;;6.40;3.08;;;;;;;18.08;77.23;96195.47;4998459;28;20692;-83
2022/06/16 00:43:36;;;;;;;6.43;3.20;;;;;;;18.03;77.34;96183.81;4981495;28;20034;-83
2022/06/16 00:46:07;;;;;;;4.13;2.75;;;;;;;17.96;78.53;96190.97;4997938;28;20031;-83
2022/06/16 00:48:47;;;;;;;5.55;3.17;;;;;;;18.01;80.39;96192.00;4999165;28;20042;-83
2022/06/16 00:51:39;;;;;;;6.63;3.03;;;;;;;18.05;79.95;96193.22;4997419;28;20078;-83
2022/06/16 00:54:15;;;;;;;8.27;2.95;;;;;;;18.01;80.18;96194.66;4997024;28;20084;-82
2022/06/16 00:56:41;;;;;;;6.50;3.25;;;;;;;17.97;82.31;96196.09;4998238;28;20039;-83
2022/06/16 00:59:08;;;;;;;9.55;3.13;;;;;;;17.98;81.93;96196.94;4997270;28;20046;-83
2022/06/16 01:01:36;;;;;;;5.15;2.85;;;;;;;17.88;83.12;96202.66;4996868;28;20038;-83
2022/06/16 01:06:46;;;;;;;7.75;3.65;;;;;;;17.84;83.01;96204.91;4998816;28;20034;-83
2022/06/16 01:09:21;;;;;;;6.50;2.85;;;;;;;17.86;84.02;96194.06;4980655;28;20084;-83
2022/06/16 01:15:17;;;;;;;5.47;3.07;;;;;;;17.64;85.79;96191.59;4996953;28;20066;-83
2022/06/16 01:18:02;;;;;;;;;;;;;;;17.74;85.31;96188.53;4997518;28;20515;-83
2022/06/16 01:20:52;;;;;;;11.40;3.25;;;;;;;17.55;87.96;96184.84;4981272;28;19913;-82
2022/06/16 01:23:39;;;;;;;6.07;3.25;;;;;;;17.69;87.60;96196.28;4996506;28;20026;-82
2022/06/16 01:26:17;;;;;;;5.95;3.10;;;;;;;17.65;88.36;96197.72;4996104;28;20064;-83
2022/06/16 01:28:55;;;;;;;7.15;3.17;;;;;;;17.47;89.91;96187.69;4995785;28;20065;-83
2022/06/16 01:31:28;;;;;;;7.47;3.10;;;;;;;17.38;89.74;96183.59;4995853;28;20038;-83
2022/06/16 01:33:54;;;;;;;7.05;3.20;;;;;;;17.25;90.65;96184.38;4996519;28;20049;-83
2022/06/16 01:36:29;;;;;;;6.35;3.33;;;;;;;17.31;88.50;96172.97;4996317;28;20038;-84
2022/06/16 01:39:06;;;;;;;6.25;3.05;;;;;;;17.34;88.04;96169.09;4995693;28;20480;-83
2022/06/16 01:41:48;;;;;;;6.93;2.95;;;;;;;17.15;89.21;96170.69;4980209;28;20081;-82
2022/06/16 01:44:34;;;;;;;6.82;3.28;;;;;;;17.03;91.06;96173.09;4996559;28;20037;-83
2022/06/16 01:47:18;;;;;;;5.75;3.00;;;;;;;16.94;93.24;96166.34;4997521;28;20117;-83
2022/06/16 01:49:56;;;;;;;7.95;3.25;;;;;;;16.93;92.76;96173.50;4996037;28;20523;-83
2022/06/16 01:52:32;;;;;;;6.72;2.90;;;;;;;17.00;91.78;96165.56;4995678;28;20031;-83
2022/06/16 01:55:02;;;;;;;6.22;3.03;;;;;;;17.07;92.09;96161.06;4996186;28;20033;-83
2022/06/16 01:57:40;;;;;;;7.30;3.28;;;;;;;17.11;91.91;96162.28;4996276;28;20423;-83
2022/06/16 02:00:12;;;;;;;8.88;3.38;;;;;;;17.10;92.22;96159.81;4996020;28;20324;-83
2022/06/16 02:03:03;;;;;;;5.50;3.58;;;;;;;17.10;94.16;96152.69;4995464;28;20053;-83
2022/06/16 02:05:42;;;;;;;6.47;2.97;;;;;;;17.20;91.63;96150.47;4995243;28;20046;-81
2022/06/16 02:08:16;;;;;;;7.88;3.35;;;;;;;17.27;90.19;96150.47;4996467;28;20045;-83
2022/06/16 02:10:51;;;;;;;5.50;2.80;;;;;;;17.22;91.78;96157.41;4995815;28;20204;-83
2022/06/16 02:13:25;;;;;;;5.70;3.15;;;;;;;17.19;92.69;96151.47;4995124;28;20031;-83
2022/06/16 02:16:01;;;;;;;5.45;2.70;;;;;;;17.20;92.42;96155.78;4995620;28;20081;-83
2022/06/16 02:18:33;;;;;;;5.95;3.38;;;;;;;17.01;95.39;96159.22;4998330;28;20040;-83
2022/06/16 02:21:21;;;;;;;6.07;3.22;;;;;;;16.88;94.09;96154.69;4982343;28;20045;-83
2022/06/16 02:23:47;;;;;;;6.43;2.88;;;;;;;16.77;94.08;96152.63;4998917;28;20408;-83
2022/06/16 02:26:14;;;;;;;5.47;3.35;;;;;;;16.72;94.86;96147.84;4999044;28;20035;-83
2022/06/16 02:28:47;;;;;;;5.80;3.27;;;;;;;16.58;97.17;96146.19;5009991;28;20034;-83
2022/06/16 02:31:16;;;;;;;7.07;3.67;;;;;;;16.47;98.33;96150.22;5010134;28;20472;-83
2022/06/16 02:33:57;;;;;;;6.10;3.60;;;;;;;16.46;97.96;96147.75;4997322;28;20038;-83
2022/06/16 02:36:39;;;;;;;6.07;2.77;;;;;;;16.50;95.35;96146.38;4996744;28;20030;-83
2022/06/16 02:39:04;;;;;;;6.47;3.03;;;;;;;16.40;94.31;96149.38;4997388;28;20396;-83
2022/06/16 02:42:14;;;;;;;4.77;2.73;;;;;;;16.41;93.51;96155.50;4996339;28;20088;-83
2022/06/16 02:44:54;;;;;;;6.40;3.23;;;;;;;16.36;92.21;96145.47;4979619;28;20050;-83
2022/06/16 02:47:54;;;;;;;6.60;3.10;;;;;;;16.42;91.76;96152.66;4997304;28;20100;-83
2022/06/16 02:50:44;;;;;;;4.97;2.87;;;;;;;16.40;92.04;96151.22;4980369;28;20137;-82
2022/06/16 02:53:37;;;;;;;6.77;3.00;;;;;;;16.51;90.93;96150.66;4996101;28;20045;-82
2022/06/16 02:56:27;;;;;;;6.50;3.40;;;;;;;16.52;89.41;96151.47;4996565;28;20034;-83
2022/06/16 02:58:57;;;;;;;7.50;3.10;;;;;;;16.55;90.98;96151.88;4979652;28;20042;-82
2022/06/16 03:01:27;;;;;;;;;;;;;;;16.43;91.78;96150.81;4996831;28;20062;-83
2022/06/16 03:04:14;;;;;;;5.53;2.70;;;;;;;16.40;93.06;96152.03;4979751;28;19920;-82
2022/06/16 03:06:44;;;;;;;4.47;2.77;;;;;;;16.19;92.59;96144.16;4995821;28;20034;-83
2022/06/16 03:09:11;;;;;;;5.43;2.67;;;;;;;16.15;93.78;96146.41;4996013;28;20062;-83
2022/06/16 03:11:38;;;;;;;5.90;2.83;;;;;;;16.12;95.38;96144.13;4996267;28;20034;-82
2022/06/16 03:14:08;;;;;;;5.57;3.47;;;;;;;16.11;95.65;96139.03;4996416;28;20057;-83
2022/06/16 03:16:39;;;;;;;5.72;3.03;;;;;;;16.06;97.30;96136.13;4996103;28;20056;-83
2022/06/16 03:19:05;;;;;;;6.30;3.30;;;;;;;16.20;94.74;96138.69;4999920;28;20030;-83
2022/06/16 03:21:31;;;;;;;5.47;2.65;;;;;;;16.29;94.54;96135.84;4999841;28;20054;-83
2022/06/16 03:23:57;;;;;;;4.83;2.77;;;;;;;16.20;95.38;96138.69;4999408;28;20491;-83
2022/06/16 03:26:24;;;;;;;6.07;3.57;;;;;;;16.22;95.52;96136.63;4999363;28;20042;-82
2022/06/16 03:28:54;;;;;;;6.83;3.20;;;;;;;16.10;94.68;96135.56;4999600;28;20098;-83
2022/06/16 03:31:20;;;;;;;7.17;3.30;;;;;;;16.19;94.60;96139.66;5001589;28;20038;-81
2022/06/16 03:33:49;;;;;;;5.73;3.63;;;;;;;16.15;96.26;96135.78;5002158;28;20502;-83
2022/06/16 03:36:14;;;;;;;7.33;3.40;;;;;;;16.16;96.40;96142.75;5002668;28;20038;-83
2022/06/16 03:38:43;;;;;;;4.60;2.97;;;;;;;16.22;96.34;96147.25;5002491;28;20022;-83
2022/06/16 03:41:12;;;;;;;6.03;3.50;;;;;;;16.27;96.70;96141.38;5002118;28;20034;-83
2022/06/16 03:43:39;;;;;;;5.30;2.90;;;;;;;16.30;97.04;96142.78;5002088;28;20039;-83
2022/06/16 03:46:16;;;;;;;9.07;3.10;;;;;;;15.94;100.00;96143.84;5002381;28;20042;-83
2022/06/16 03:48:47;;;;;;;5.28;2.80;;;;;;;16.10;99.62;96140.06;5002246;28;20034;-83
2022/06/16 03:51:19;;;;;;;5.87;3.13;;;;;;;15.88;100.00;96144.59;5002474;28;20034;-83
2022/06/16 03:53:45;;;;;;;5.73;3.30;;;;;;;15.76;100.00;96147.81;5002006;28;20114;-82
2022/06/16 03:56:12;;;;;;;6.73;3.13;;;;;;;15.88;100.00;96148.06;5001868;28;20476;-82
2022/06/16 03:58:40;;;;;;;5.10;3.10;;;;;;;16.03;100.00;96147.97;5002460;28;20041;-83
2022/06/16 04:01:07;;;;;;;4.73;3.03;;;;;;;15.98;100.00;96153.84;5001434;28;20026;-83
2022/06/16 04:06:20;;;;;;;8.27;3.70;;;;;;;15.72;100.00;96154.47;5002280;28;20034;-83
2022/06/16 04:08:48;;;;;;;6.30;3.50;;;;;;;15.82;100.00;96151.50;5002202;28;20049;-82
2022/06/16 04:11:27;;;;;;;6.83;3.50;;;;;;;15.88;100.00;96145.41;4990214;28;20034;-82
2022/06/16 04:14:04;;;;;;;5.67;3.20;;;;;;;15.78;100.00;96151.06;4999119;28;20086;-81
2022/06/16 04:16:32;;;;;;;6.17;3.77;;;;;;;15.93;100.00;96160.78;5014785;28;20034;-81
2022/06/16 04:19:00;;;;;;;5.47;3.50;;;;;;;16.10;100.00;96159.44;5011448;28;20042;-81
2022/06/16 04:21:29;;;;;;;6.23;3.40;;;;;;;16.25;100.00;96152.16;5016547;28;20039;-82
2022/06/16 04:24:17;;;;;;;7.00;4.20;;;;;;;16.37;100.00;96154.28;5016207;28;20527;-82
2022/06/16 04:26:47;;;;;;;6.23;3.43;;;;;;;16.45;100.00;96156.75;5016452;28;20018;-82
2022/06/16 04:29:14;;;;;;;6.43;3.53;;;;;;;16.60;100.00;96165.41;5000327;28;20038;-83
2022/06/16 04:31:43;;;;;;;8.37;3.60;;;;;;;16.67;100.00;96171.53;4984414;28;20077;-83
2022/06/16 04:34:10;;;;;;;4.43;3.10;;;;;;;16.84;100.00;96164.06;5004183;28;20098;-82
2022/06/16 04:36:39;;;;;;;6.63;3.30;;;;;;;17.03;100.00;96170.44;5014053;28;20030;-82
2022/06/16 04:39:10;;;;;;;6.40;3.37;;;;;;;17.09;100.00;96179.44;5014250;28;20014;-83
2022/06/16 04:41:39;;;;;;;6.13;4.07;;;;;;;17.07;100.00;96176.16;5004378;28;20041;-84
2022/06/16 04:44:07;;;;;;;5.65;3.45;;;;;;;16.91;100.00;96182.69;5002268;28;20377;-84
2022/06/16 04:46:33;;;;;;;6.63;3.22;;;;;;;17.11;100.00;96182.75;5001495;28;20026;-84
2022/06/16 04:49:00;;;;;;;6.47;3.45;;;;;;;17.26;100.00;96182.56;5000984;28;20455;-84
2022/06/16 04:51:31;;;;;;;6.75;3.25;;;;;;;17.49;100.00;96185.63;5001151;28;20125;-82
2022/06/16 04:53:59;;;;;;;5.35;3.22;;;;;;;17.63;100.00;96191.78;5005098;28;20061;-83
2022/06/16 04:56:51;;;;;;;7.90;3.72;;;;;;;17.81;100.00;96196.53;5001581;28;20046;-84
2022/06/16 04:59:41;;;;;;;10.32;3.67;;;;;;;17.88;100.00;96192.84;5001154;28;20097;-83
2022/06/16 05:02:10;;;;;;;5.50;3.22;;;;;;;17.97;100.00;96195.28;4999956;28;20069;-83
2022/06/16 05:05:12;;;;;;;5.57;3.35;;;;;;;17.79;100.00;96191.41;4998556;28;20054;-84
2022/06/16 05:07:43;;;;;;;6.95;3.38;;;;;;;17.93;100.00;96200.19;4996126;28;20500;-83
2022/06/16 05:10:25;;;;;;;6.72;3.65;;;;;;;17.89;100.00;96196.31;4999806;28;20041;-83
2022/06/16 05:13:20;;;;;;;5.30;3.30;;;;;;;18.09;100.00;96196.28;4998931;28;20042;-83
2022/06/16 05:15:55;;;;;;;6.25;3.38;;;;;;;18.21;100.00;96199.13;4998585;28;20092;-83
2022/06/16 05:18:29;;;;;;;6.18;3.95;;;;;;;18.69;100.00;96196.94;4998656;28;20090;-83
2022/06/16 05:21:14;;;;;;;5.80;3.47;;;;;;;18.98;100.00;96200.97;4999060;28;20057;-83
2022/06/16 05:23:59;;;;;;;5.13;3.25;;;;;;;19.20;97.41;96208.63;4999020;28;20572;-82
2022/06/16 05:26:48;;;;;;;4.88;2.83;;;;;;;19.58;91.39;96202.41;4997680;28;20038;-83
2022/06/16 05:29:32;;;;;;;5.95;2.97;;;;;;;20.06;85.05;96204.53;4997884;28;20045;-84
2022/06/16 05:32:30;;;;;;;5.45;3.15;;;;;;;20.48;82.67;96208.22;5009751;28;20046;-84
2022/06/16 05:35:32;;;;;;;5.93;3.03;;;;;;;20.75;86.48;96210.63;4997071;28;20038;-82
2022/06/16 05:38:16;;;;;;;7.28;3.63;;;;;;;20.41;84.32;96213.63;4984980;28;20048;-84
2022/06/16 05:41:01;;;;;;;6.68;3.58;;;;;;;20.30;84.43;96217.03;4998320;28;20038;-84
2022/06/16 05:43:47;;;;;;;7.28;3.53;;;;;;;20.34;83.71;96220.06;4998934;28;20042;-84
2022/06/16 05:46:32;;;;;;;6.60;3.78;;;;;;;20.38;80.51;96214.06;4998697;28;20038;-84
2022/06/16 05:49:04;;;;;;;5.82;3.38;;;;;;;20.29;79.41;96214.56;4997289;28;20098;-84
2022/06/16 05:51:30;;;;;;;5.88;3.58;;;;;;;20.44;79.79;96215.03;4998300;28;20038;-84
2022/06/16 05:54:02;;;;;;;9.25;4.03;;;;;;;20.79;76.17;96206.44;4998586;28;20070;-84
2022/06/16 05:56:32;;;;;;;8.20;4.10;;;;;;;21.13;72.86;96213.03;4998937;28;20034;-84
2022/06/16 05:58:58;;;;;;;8.63;3.20;;;;;;;21.56;71.65;96209.34;4999073;28;20126;-83
2022/06/16 06:01:26;;;;;;;6.32;3.50;;;;;;;21.95;69.48;96209.78;4998502;28;20035;-85
2022/06/16 06:04:09;;;;;;;7.60;4.13;;;;;;;22.24;66.04;96214.25;4998666;28;20061;-84
2022/06/16 06:06:35;;;;;;;8.13;3.88;;;;;;;21.75;68.67;96218.13;4997993;28;20811;-84
2022/06/16 06:17:20;;;;;;;7.05;3.45;;;;;;;22.80;68.80;96223.50;5000553;28;20134;-84
2022/06/16 06:19:52;;;;;;;6.60;3.20;;;;;;;22.56;68.28;96232.63;4998120;28;20026;-84
2022/06/16 06:22:24;;;;;;;5.53;3.08;;;;;;;22.38;70.58;96230.09;4997986;28;20037;-83
2022/06/16 06:24:57;;;;;;;7.65;3.63;;;;;;;22.01;72.08;96232.97;4997014;28;20030;-83
2022/06/16 06:27:34;;;;;;;5.28;3.35;;;;;;;21.82;72.34;96243.75;4997196;28;20030;-82
2022/06/16 06:30:01;;;;;;;8.32;3.65;;;;;;;21.60;74.42;96237.31;4997919;28;20373;-82
2022/06/16 06:32:28;;;;;;;5.18;3.35;;;;;;;21.23;76.00;96242.72;4997779;28;20109;-83
2022/06/16 06:34:54;;;;;;;7.80;3.95;;;;;;;21.54;76.30;96235.53;4998434;28;20042;-83
2022/06/16 06:37:22;;;;;;;7.85;3.88;;;;;;;21.31;76.96;96230.88;5000403;28;20026;-84
2022/06/16 06:39:50;;;;;;;7.88;3.67;;;;;;;21.75;74.46;96232.31;4996691;28;20034;-83
2022/06/16 06:42:16;;;;;;;5.93;3.50;;;;;;;21.81;76.09;96235.94;4996191;28;20044;-83
2022/06/16 06:44:43;;;;;;;7.07;3.80;;;;;;;22.50;71.10;96233.56;4979210;28;20045;-84
2022/06/16 06:47:33;;;;;;;7.97;3.72;;;;;;;22.05;73.11;96234.13;4996211;28;20038;-84
2022/06/16 06:49:59;;;;;;;7.72;3.78;;;;;;;22.70;69.89;96234.03;4996659;28;20050;-84
2022/06/16 06:52:25;;;;;;;6.32;3.17;;;;;;;22.80;69.71;96225.34;4996138;28;20046;-84
2022/06/16 06:54:51;;;;;;;5.72;3.25;;;;;;;23.29;64.99;96229.31;4995721;28;20026;-84
2022/06/16 06:57:22;;;;;;;8.27;3.20;;;;;;;23.79;60.56;96230.50;4994536;28;20061;-84
2022/06/16 06:59:48;;;;;;;6.20;3.13;;;;;;;23.63;61.37;96232.06;4995081;28;20038;-84
2022/06/16 07:02:15;;;;;;;5.43;3.22;;;;;;;23.87;59.68;96232.78;4994952;28;20384;-84
2022/06/16 07:04:41;;;;;;;4.97;2.83;;;;;;;23.64;59.15;96241.78;4994790;28;20464;-84
2022/06/16 07:07:11;;;;;;;6.20;3.05;;;;;;;23.27;59.89;96233.28;4995181;28;20525;-84
2022/06/16 07:09:37;;;;;;;5.07;3.20;;;;;;;23.10;58.94;96238.59;4994894;28;20117;-84
2022/06/16 07:12:03;;;;;;;7.05;3.45;;;;;;;23.09;62.52;96239.66;4978702;28;20026;-84
2022/06/16 07:14:30;;;;;;;8.40;3.50;;;;;;;23.29;61.74;96237.38;4994500;28;20033;-85
2022/06/16 07:16:57;;;;;;;5.38;3.20;;;;;;;23.18;63.73;96235.56;4993855;28;20041;-85
2022/06/16 07:19:24;;;;;;;6.80;3.08;;;;;;;23.60;62.61;96234.44;4994081;28;20531;-84
2022/06/16 07:21:50;;;;;;;5.55;3.40;;;;;;;24.28;58.91;96229.91;4978075;28;20499;-84
2022/06/16 07:24:16;;;;;;;8.13;3.25;;;;;;;24.29;59.46;96234.25;4993326;28;20030;-84
2022/06/16 07:26:41;;;;;;;6.80;3.28;;;;;;;24.17;59.35;96243.19;4994454;28;20066;-84
2022/06/16 07:29:10;;;;;;;5.57;3.30;;;;;;;23.78;57.71;96247.69;4994382;28;20037;-84
2022/06/16 07:31:36;;;;;;;6.40;3.47;;;;;;;23.69;57.49;96243.75;4994902;28;20034;-84
2022/06/16 07:34:04;;;;;;;5.70;3.13;;;;;;;23.33;60.24;96250.31;4994612;28;20076;-84
2022/06/16 07:36:29;;;;;;;7.38;3.72;;;;;;;23.23;60.08;96249.06;4978087;28;20026;-84
2022/06/16 07:38:55;;;;;;;6.63;3.22;;;;;;;23.49;59.83;96242.31;4994777;28;20557;-84
2022/06/16 07:41:36;;;;;;;6.13;3.40;;;;;;;23.61;59.40;96239.56;4996001;28;20703;-84
2022/06/16 07:44:10;;;;;;;6.30;3.33;;;;;;;23.72;63.04;96273.63;4996710;28;20034;-84
2022/06/16 07:46:37;;;;;;;6.78;3.38;;;;;;;23.57;65.15;96264.44;4996521;28;20137;-84
2022/06/16 07:49:07;;;;;;;6.50;3.92;;;;;;;23.67;66.46;96262.75;4996737;28;20034;-84
2022/06/16 07:51:34;;;;;;;5.00;3.08;;;;;;;23.82;65.96;96261.44;4996895;28;20085;-84
2022/06/16 07:54:00;;;;;;;6.88;3.33;;;;;;;23.62;64.78;96261.88;4980215;28;20042;-83
2022/06/16 07:56:25;;;;;;;6.45;3.60;;;;;;;23.64;64.57;96255.19;4979701;28;20034;-84
2022/06/16 07:58:51;;;;;;;9.27;3.30;;;;;;;23.88;62.74;96260.47;4994684;28;20041;-84
2022/06/16 08:01:20;;;;;;;7.45;3.53;;;;;;;24.50;59.58;96273.84;4979731;28;20038;-82
2022/06/16 08:03:46;;;;;;;6.45;3.85;;;;;;;24.09;62.58;96275.88;4995492;28;20061;-84
2022/06/16 08:06:20;;;;;;;5.38;3.40;;;;;;;24.15;63.84;96274.09;4998830;28;20030;-80
2022/06/16 08:08:46;;;;;;;5.05;3.30;;;;;;;24.23;62.27;96269.09;4994240;28;20477;-83
2022/06/16 08:13:59;;;;;;;8.05;3.35;;;;;;;23.93;63.06;96269.41;4990255;28;20026;-83
2022/06/16 08:16:26;;;;;;;5.82;3.83;;;;;;;23.98;64.07;96274.88;4992717;28;20030;-80
2022/06/16 08:18:51;;;;;;;6.05;3.75;;;;;;;23.97;63.60;96277.81;4998723;28;20399;-84
2022/06/16 08:21:19;;;;;;;7.43;3.65;;;;;;;24.27;62.96;96274.00;4987076;28;20042;-78
2022/06/16 08:23:46;;;;;;;6.47;3.47;;;;;;;24.77;62.16;96275.84;4985122;28;20062;-79
2022/06/16 08:26:12;;;;;;;5.80;3.80;;;;;;;25.19;59.70;96278.84;4982139;28;20077;-78
2022/06/16 08:28:39;;;;;;;8.70;3.53;;;;;;;24.95;60.48;96280.94;4965179;28;20029;-77
2022/06/16 08:31:07;;;;;;;7.75;3.65;;;;;;;25.01;59.92;96279.09;4989300;28;20045;-78
2022/06/16 08:33:33;;;;;;;5.82;3.40;;;;;;;26.38;54.89;96282.44;4984502;28;20030;-78
2022/06/16 08:35:59;;;;;;;7.40;4.10;;;;;;;26.81;52.39;96283.31;4969929;28;20441;-81
2022/06/16 08:38:25;;;;;;;7.20;3.97;;;;;;;27.56;51.04;96281.22;4994317;28;20041;-79
2022/06/16 08:41:11;;;;;;;23.15;19.63;;;;;;;28.19;48.46;96278.38;5000945;28;20026;-79
2022/06/16 08:44:00;;;;;;;6.68;4.30;;;;;;;28.03;47.87;96284.84;4989222;28;20146;-80
2022/06/16 08:46:31;;;;;;;5.97;3.38;;;;;;;28.36;47.86;96278.91;4967705;28;20038;-80
2022/06/16 08:49:10;;;;;;;5.38;3.30;;;;;;;28.30;47.34;96285.38;4990744;28;20023;-80
2022/06/16 08:51:41;;;;;;;5.53;3.60;;;;;;;29.23;44.63;96283.38;4993862;28;20041;-77
2022/06/16 08:54:44;;;;;;;6.03;4.00;;;;;;;29.79;44.65;96283.13;4984548;28;20057;-77
2022/06/16 08:57:14;;;;;;;10.38;6.30;;;;;;;30.13;42.40;96283.16;4985776;28;20074;-77
2022/06/16 08:59:48;;;;;;;7.25;4.50;;;;;;;31.06;40.96;96277.75;4972760;28;20046;-78
2022/06/16 09:02:35;;;;;;;4.47;3.25;;;;;;;31.50;39.31;96291.09;4984295;28;20030;-78
2022/06/16 09:05:19;;;;;;;9.13;3.88;;;;;;;31.30;40.00;96291.31;4983882;28;20046;-77
2022/06/16 09:08:00;;;;;;;6.07;3.13;;;;;;;30.93;39.35;96296.34;4986856;28;20030;-80
2022/06/16 09:10:47;;;;;;;6.20;3.50;;;;;;;31.43;38.58;96296.09;4983431;28;20037;-78
2022/06/16 09:13:34;;;;;;;6.43;3.65;;;;;;;31.14;39.27;96294.22;4975376;28;20039;-79
2022/06/16 09:16:28;;;;;;;7.70;4.05;;;;;;;31.86;36.19;96296.84;4989796;28;20066;-79
2022/06/16 09:19:06;;;;;;;7.82;3.60;;;;;;;31.62;36.85;96302.38;4984398;28;20048;-78
2022/06/16 09:22:19;;;;;;;6.18;3.50;;;;;;;33.18;34.46;96308.63;4987332;28;20093;-80
2022/06/16 09:25:05;;;;;;;6.97;3.35;;;;;;;31.50;35.22;96320.19;4968778;28;20035;-78
2022/06/16 09:27:42;;;;;;;4.95;3.20;;;;;;;31.86;35.51;96313.19;5004182;28;20034;-80
2022/06/16 09:30:22;;;;;;;7.53;3.53;;;;;;;31.38;32.73;96307.00;4993026;28;20034;-76
2022/06/16 09:33:00;;;;;;;5.88;2.72;;;;;;;31.66;35.65;96314.25;4995687;28;20030;-79
2022/06/16 09:35:32;;;;;;;12.95;5.40;;;;;;;32.23;35.38;96322.47;4996819;28;20042;-79
2022/06/16 09:38:03;;;;;;;17.13;12.07;;;;;;;31.69;34.22;96324.56;5003117;28;20604;-78
2022/06/16 09:40:42;;;;;;;13.30;8.25;;;;;;;31.19;35.49;96321.34;4992506;28;20062;-80
2022/06/16 09:43:16;;;;;;;6.55;5.00;;;;;;;31.04;35.40;96320.69;4998578;28;20037;-79
2022/06/16 09:46:14;;;;;;;9.95;5.95;;;;;;;29.79;38.85;96324.59;5005145;28;20169;-79
2022/06/16 09:49:12;;;;;;;5.32;3.53;;;;;;;30.95;37.69;96309.63;4986430;28;20150;-79
2022/06/16 09:51:51;;;;;;;5.78;3.17;;;;;;;31.03;36.47;96319.88;4999081;28;20042;-80
2022/06/16 09:54:31;;;;;;;4.70;3.25;;;;;;;31.18;35.22;96316.97;5001211;28;20034;-77
2022/06/16 09:57:19;;;;;;;8.48;3.65;;;;;;;33.00;34.35;96310.31;5005107;28;20044;-80
2022/06/16 09:59:52;;;;;;;5.28;3.35;;;;;;;32.50;34.38;96305.44;4998208;28;20121;-80
2022/06/16 10:02:26;;;;;;;5.43;3.30;;;;;;;31.78;33.82;96302.13;4998800;28;20091;-79
2022/06/16 10:04:54;;;;;;;6.25;3.58;;;;;;;33.55;32.65;96299.44;4998896;28;20054;-79
2022/06/16 10:07:44;;;;;;;8.30;5.65;;;;;;;33.43;33.43;96299.91;4974608;28;20035;-78
2022/06/16 10:10:31;;;;;;;5.90;3.22;;;;;;;32.48;34.20;96310.38;4990566;28;20035;-79
2022/06/16 10:13:27;;;;;;;5.10;3.60;;;;;;;33.08;33.29;96304.97;4971554;28;20045;-79
2022/06/16 10:16:23;;;;;;;5.80;3.08;;;;;;;33.13;32.61;96311.44;4995181;28;20034;-84
2022/06/16 10:18:49;;;;;;;9.88;3.40;;;;;;;32.88;33.61;96307.25;4976078;28;20100;-79
2022/06/16 10:21:16;;;;;;;5.93;3.67;;;;;;;32.53;33.05;96320.34;4978342;28;20084;-79
2022/06/16 10:23:56;;;;;;;6.20;3.25;;;;;;;32.17;32.72;96329.88;4984509;28;20092;-79
2022/06/16 10:26:22;;;;;;;5.05;3.20;;;;;;;32.53;33.66;96325.81;4988394;28;20125;-76
2022/06/16 10:28:50;;;;;;;5.97;3.42;;;;;;;32.13;33.27;96325.34;4990461;28;20113;-78
2022/06/16 10:31:43;;;;;;;6.60;3.67;;;;;;;32.22;33.17;96326.25;4990878;28;20038;-78
2022/06/16 10:34:27;;;;;;;8.15;3.63;;;;;;;32.78;32.52;96313.69;4978460;28;20045;-78
2022/06/16 10:36:59;;;;;;;6.88;3.40;;;;;;;32.71;33.20;96326.88;4991372;28;20073;-79
2022/06/16 10:39:48;;;;;;;5.72;3.50;;;;;;;32.75;31.07;96334.16;4982657;28;20038;-79
2022/06/16 10:42:23;;;;;;;5.75;3.17;;;;;;;32.22;31.52;96334.44;4957208;28;20066;-80
2022/06/16 10:44:58;;;;;;;5.28;3.22;;;;;;;32.26;31.18;96335.47;4984896;28;20141;-79
2022/06/16 10:47:32;;;;;;;5.97;3.15;;;;;;;33.04;30.93;96338.59;4996350;28;20049;-80
2022/06/16 10:49:58;;;;;;;6.43;3.40;;;;;;;33.45;29.49;96335.88;4999571;28;20349;-81
2022/06/16 10:52:30;;;;;;;12.68;9.57;;;;;;;32.99;31.05;96344.09;4989309;28;20038;-80
2022/06/16 10:55:08;;;;;;;7.88;3.55;;;;;;;33.65;29.26;96342.06;4992339;28;20649;-82
2022/06/16 10:57:42;;;;;;;6.28;3.53;;;;;;;33.47;29.00;96343.75;4996943;28;20053;-81
2022/06/16 11:00:22;;;;;;;7.28;3.75;;;;;;;32.42;31.86;96363.28;4992011;28;20042;-81
2022/06/16 11:03:14;;;;;;;9.75;3.92;;;;;;;32.47;32.33;96363.22;4984568;28;20039;-81
2022/06/16 11:06:07;;;;;;;8.55;3.72;;;;;;;33.22;31.01;96359.47;4992735;28;20105;-81
2022/06/16 11:08:38;;;;;;;9.18;5.18;;;;;;;32.10;31.82;96364.00;4996392;28;20985;-81
2022/06/16 11:11:04;;;;;;;7.40;5.95;;;;;;;31.02;32.86;96363.59;4986687;28;20057;-81
2022/06/16 11:13:48;;;;;;;7.78;3.95;;;;;;;31.83;32.34;96361.91;4971435;28;20030;-81
2022/06/16 11:16:28;;;;;;;8.90;5.90;;;;;;;32.54;31.11;96368.28;4989977;28;20953;-80
2022/06/16 11:18:58;;;;;;;7.18;5.40;;;;;;;32.62;31.15;96367.59;4970384;28;20037;-81
2022/06/16 11:21:29;;;;;;;5.18;3.30;;;;;;;31.88;31.09;96381.69;4989713;28;20041;-81
2022/06/16 11:23:58;;;;;;;7.32;3.70;;;;;;;31.69;31.56;96372.66;4969670;28;20033;-80
2022/06/16 11:26:28;;;;;;;5.15;3.03;;;;;;;32.26;31.11;96379.03;4992717;28;20018;-78
2022/06/16 11:29:23;;;;;;;6.38;3.90;;;;;;;31.74;31.26;96372.63;4993933;28;20038;-80
2022/06/16 11:32:03;;;;;;;6.30;3.50;;;;;;;32.57;31.54;96382.09;4990631;28;20039;-80
2022/06/16 11:34:28;;;;;;;5.82;3.45;;;;;;;32.36;31.48;96375.31;4990049;28;20095;-80
2022/06/16 11:37:00;;;;;;;6.22;4.00;;;;;;;32.39;31.22;96381.00;4994304;28;20680;-80
2022/06/16 11:39:47;;;;;;;8.45;5.93;;;;;;;33.13;30.78;96383.09;4989650;28;20100;-80
2022/06/16 11:42:28;;;;;;;6.43;4.45;;;;;;;32.33;30.79;96386.81;4979529;28;20125;-82
2022/06/16 11:44:54;;;;;;;5.35;3.60;;;;;;;32.71;30.92;96387.59;5004551;28;20079;-80
2022/06/16 11:47:32;;;;;;;5.63;3.25;;;;;;;33.05;30.83;96392.75;4978273;28;20121;-80
2022/06/16 11:50:31;;;;;;;5.70;3.40;;;;;;;33.19;28.82;96378.34;4983626;28;20042;-80
2022/06/16 11:53:18;;;;;;;4.57;2.95;;;;;;;33.03;28.19;96386.81;4993503;28;20027;-80
2022/06/16 11:55:54;;;;;;;7.28;3.17;;;;;;;32.11;29.67;96396.34;4976286;28;20081;-80
2022/06/16 11:58:58;;;;;;;5.60;3.63;;;;;;;32.57;30.03;96393.00;4974055;28;20739;-80
2022/06/16 12:01:31;;;;;;;10.13;7.82;;;;;;;32.43;30.42;96396.75;4983109;28;20034;-80
2022/06/16 12:04:34;;;;;;;8.57;5.25;;;;;;;32.28;31.13;96395.84;5001225;28;20072;-80
2022/06/16 12:07:18;;;;;;;5.13;3.35;;;;;;;31.11;33.59;96398.00;4984317;28;20045;-80
2022/06/16 12:09:51;;;;;;;9.32;3.95;;;;;;;31.06;33.12;96403.50;4991314;28;20030;-80
2022/06/16 12:12:17;;;;;;;6.53;3.38;;;;;;;30.12;34.55;96405.50;4994135;28;20644;-80
2022/06/16 12:15:22;;;;;;;5.57;3.53;;;;;;;31.58;33.10;96404.59;4988433;28;20049;-80
2022/06/16 12:18:09;;;;;;;5.40;3.55;;;;;;;31.66;32.21;96398.53;4990272;28;20046;-80
2022/06/16 12:21:09;;;;;;;5.68;3.35;;;;;;;33.54;31.51;96394.06;4988803;28;20031;-80
2022/06/16 12:24:04;;;;;;;8.35;6.25;;;;;;;31.96;33.65;96404.75;4991775;28;20102;-80
2022/06/16 12:27:02;;;;;;;5.70;3.90;;;;;;;32.30;31.38;96401.81;4991365;28;20034;-80
2022/06/16 12:29:53;;;;;;;7.88;3.50;;;;;;;32.53;32.22;96391.97;5000141;28;20058;-80